Culloden, Georgia
Current Conditions -  °F | °C
As of 7:35 AM on Sunday 21 Dec 2014 (Local Time) from KOPN Reporting Station
Haze Haze  
Wind Chill: 10°   Ceiling: 300
Heat Index: 10°   Visibility: 4mi
Dew Point:   Wind: 7mph
Humidity: 87%   Direction: 70°ENE
Pressure: 30.19"   Gusts: NA
Location:  32.86°N, 84.09°W
Report Text: KOPN 211235Z AUTO 07006KT 4SM BR OVC003 10/08 A3019 RMK AO2
Loading
Personal Weather Stations






























Interactive Weather Map New forecast layout! Learn more

10-Day Weather Forecast

Advertisements
Track Severe Weather on mobile